Novato, CA

4:21 AM PDT on August 30, 2014 (GMT -0700)
Northeast Novato | Change Station
CLOSE
Current Station
Personal Weather Station
Location: Novato, CA
Elevation: 16 ft
Nearby Weather Stations

Elev 16 ft 38.11 °N, 122.56 °W | Updated 1 minute ago

Clear
Clear
61.2 °F
Feels Like 61.2 °F
N
-
Wind Variable Wind from North

Today
High -- | Low -- °F
--% Chance of Precip.
Yesterday
High -- | Low -- °F
Precip. -- in
6:38 AM 7:42 PM
Waxing Crescent, 21% visible
Pressure 29.85 in
Visibility 10.0 miles
Clouds Clear
Dew Point 48 °F
Humidity 67%
Rainfall -999.00 in
Snow Depth Not available.
UV 0 out of 12
Pollen 7.70 out of 12
PM2.5 Good
Flu Activity Not available.
METAR KAPC 301054Z 00000KT 10SM CLR 16/13 A2988 RMK AO2 SLP108 T01560128

More Conditions Fewer Conditions

Pressure 29.85 in
Visibility 10.0 miles
Clouds Clear
Dew Point 48 °F
Humidity 67%
Rainfall -999.00 in
Snow Depth Not available.
UV 0 out of 12
Pollen 7.70 out of 12
PM2.5 Good
Flu Activity Not available.
METAR KAPC 301054Z 00000KT 10SM CLR 16/13 A2988 RMK AO2 SLP108 T01560128

More Conditions Fewer Conditions

10-Day Weather Forecast

Almanac

Astronomy

Aug. 30, 2014 Rise Set
Actual Time 6:38 AM PDT 7:42 PM PDT
Civil Twilight 6:11 AM PDT 8:09 PM PDT
Nautical Twilight 5:38 AM PDT 8:41 PM PDT
Astronomical Twilight 5:05 AM PDT 9:15 PM PDT
Moon 11:26 AM PDT 10:25 PM PDT
Length of Visible Light 13h 58m
Length of Day
13h 04m
Tomorrow will be 2m 21s shorter.
Waxing Crescent, 21% of the Moon is Illuminated
Today
Waxing Crescent
Sep 2
First Quarter
Sep 8
Full
Sep 15
Last Quarter
Sep 24
New

Today's Extremes

State Highs State Lows

Community

WunderPhotos

Upload Photos

1,748,492 photos uploaded!

WunderBlogs® & News

By Dr. Jeff Masters
Director of Meteorology, Weather Underground
By Kari Strenfel
Meteorologist, Weather Underground
By Christopher C. Burt
Weather Historian, Weather Underground
August 30, 2014
August 30, 2014
August 30, 2014

Nearby

Air Quality

  Air Quality AQ Index Pollutant
Yesterday Good
PM2.5
Yesterday Good
OZONE
Current Good
PM2.5
Saturday Good
PM2.5
Sunday Good
PM2.5
Monday Good
PM2.5
Tuesday Good
PM2.5
Wednesday Good
PM2.5

Snow Depth

Station Depth Elevation
Echo Peak 1 in 7800 ft
CSS Lab 2 in 6900 ft
Rubicon #2 0 in 7500 ft
Forestdale Creek 0 in 8029 ft
Fallen Leaf 0 in 6300 ft

Earthquake Activity

City Distance Mag. Time & Date
Ridgemark, California 120 miles 3.4 4:32 PM PDT
2014-08-29
The Geysers, California 50 miles 2.7 2:53 PM PDT
2014-08-29
Ridgemark, California 120 miles 3.0 2:44 PM PDT
2014-08-29
Minimum magnitude displayed is 2.5.

Coastal Water Temperatures

Place Temperature
San Francisco, CA 64.9 °F
Richmond, CA 66.9 °F
Port Chicago, CA 69.1 °F

Nearby Weather Stations